Airfield :
LOGIN :

Register | Disclaimer

   EN    FR    IT 

 










Legend :    VFR   Marginal VFR   IFR   Intensive IFR   Very Intensive IFR
Visi :
Ceiling :
>= 8 km
>= 3000ft
5 to 8 km
1000 to 3000 ft
1500m to 5 km
500 to 1000 ft
800 to 1500m
200 to 500 ft
< 800m
< 200 ft
Symbols :   Thunderstorms  Fog  Heavy snow  Heavy precipitations  Wind > 20 kt
SIGMETs :     Misc.  Thunderstorms  Icing  Turbulence  Mountain Waves  Volcanic Ashes







- Airport Elevation : 102 ft
- IATA code : CNG
- Download approach charts


LFBG - Cognac

CURRENT METAR :
  • 201830Z AUTO 10005KT CAVOK 26/12 Q1013

EXPIRED METARs :
  • 201800Z AUTO 10005KT CAVOK 27/11 Q1013
  • 201730Z AUTO 12007KT CAVOK 29/11 Q1013
  • 201700Z AUTO 13008KT CAVOK 30/11 Q1013
  • 201630Z AUTO 13009KT 100V160 CAVOK 31/11 Q1013
  • 201600Z AUTO 13011KT 100V160 CAVOK 31/11 Q1013

TAF TAF LFBG
Valid from the 20 at 09:00 until the 21 at 09:00 UTC


200800Z 2009/2109 04008KT CAVOK
No reported NOTAMs for that airfield.



MET'MAP, your aeronautical weather chart ! - Copyright ORBIFLY December 2007 - Disclaimer

ORBIFLY MET'MAP TEAM :

Programming & Development : Alexandra Zaïnal
Concept & Development : Baudouin d'Aumeries
Co-Development & Prog : Marc-Olivier Méhu
Technical & hardware support : Manuel Goepfert

Contact : metmap@orbifly.com




SOURCES & CREDITS :

   NOAA